Time;durP1;ratioP1;P1;durP2;ratioP2;P2;SDS_P1;SDS_P2;PMS_P1;PMS_P2;Temp;Humidity;BMP_temperature;BMP_pressure;BME280_temperature;BME280_humidity;BME280_pressure;Samples;Min_cycle;Max_cycle;Signal;HPM_P1;HPM_P2
2023/01/08 00:01:12;;;;;;;;;;;;;;;25.95;46.81;97424.78;610850;232;62832;-74
2023/01/08 00:03:39;;;;;;;;;;;;;;;25.95;46.78;97415.91;610622;231;66471;-74
2023/01/08 00:06:08;;;;;;;;;;;;;;;25.95;48.14;97423.98;610912;232;68994;-74
2023/01/08 00:08:36;;;;;;;;;;;;;;;25.93;48.58;97421.57;610947;231;62805;-74
2023/01/08 00:11:03;;;;;;;;;;;;;;;25.91;47.67;97416.47;610831;231;66526;-73
2023/01/08 00:13:31;;;;;;;;;;;;;;;25.91;48.40;97423.75;610918;232;66466;-72
2023/01/08 00:16:00;;;;;;;;;;;;;;;25.90;47.32;97430.23;610882;232;62650;-72
2023/01/08 00:18:28;;;;;;;;;;;;;;;25.88;48.17;97418.95;610902;231;66462;-71
2023/01/08 00:20:55;;;;;;;;;;;;;;;25.87;47.30;97420.85;610949;232;66565;-72
2023/01/08 00:23:23;;;;;;;;;;;;;;;25.86;48.42;97421.95;610916;232;62716;-72
2023/01/08 00:25:50;;;;;;;;;;;;;;;25.84;47.70;97421.44;610893;231;66171;-72
2023/01/08 00:28:19;;;;;;;;;;;;;;;25.83;48.58;97421.69;609616;231;68486;-72
2023/01/08 00:30:47;;;;;;;;;;;;;;;25.83;49.50;97416.30;606622;234;65099;-72
2023/01/08 00:33:15;;;;;;;;;;;;;;;25.81;47.41;97416.61;606675;233;69115;-72
2023/01/08 00:35:43;;;;;;;;;;;;;;;25.81;47.50;97419.31;606951;232;68556;-71
2023/01/08 00:38:11;;;;;;;;;;;;;;;25.79;48.83;97410.72;606611;234;64858;-74
2023/01/08 00:40:39;;;;;;;;;;;;;;;25.78;47.60;97402.92;606664;234;68571;-74
2023/01/08 00:43:07;;;;;;;;;;;;;;;25.77;48.48;97407.51;606747;234;68550;-74
2023/01/08 00:45:34;;;;;;;;;;;;;;;25.76;47.97;97405.92;606703;234;62988;-74
2023/01/08 00:48:02;;;;;;;;;;;;;;;25.75;48.08;97401.61;606948;232;66490;-74
2023/01/08 00:50:29;;;;;;;;;;;;;;;25.74;48.72;97400.02;606691;234;66506;-74
2023/01/08 00:52:56;;;;;;;;;;;;;;;25.75;49.51;97393.53;606758;232;64856;-74
2023/01/08 00:55:24;;;;;;;;;;;;;;;25.74;49.06;97404.61;606680;232;68638;-74
2023/01/08 00:57:51;;;;;;;;;;;;;;;25.73;47.60;97395.74;606708;234;66513;-73
2023/01/08 01:00:19;;;;;;;;;;;;;;;25.72;47.25;97398.71;606712;232;62836;-74
2023/01/08 01:02:46;;;;;;;;;;;;;;;25.72;47.48;97406.79;606707;232;68449;-74
2023/01/08 01:05:15;;;;;;;;;;;;;;;25.71;48.76;97405.99;606694;234;68735;-74
2023/01/08 01:07:43;;;;;;;;;;;;;;;25.69;49.67;97405.48;606886;232;65112;-74
2023/01/08 01:10:12;;;;;;;;;;;;;;;25.66;49.28;97406.86;606964;232;68739;-74
2023/01/08 01:12:40;;;;;;;;;;;;;;;25.65;49.26;97405.27;606741;232;68513;-72
2023/01/08 01:15:08;;;;;;;;;;;;;;;25.65;48.72;97404.48;606720;234;62758;-72
2023/01/08 01:17:37;;;;;;;;;;;;;;;25.64;50.00;97413.62;606601;234;68912;-72
2023/01/08 01:20:05;;;;;;;;;;;;;;;25.62;49.35;97413.94;606749;232;68895;-72
2023/01/08 01:22:32;;;;;;;;;;;;;;;25.62;51.11;97405.06;607054;232;64868;-72
2023/01/08 01:25:00;;;;;;;;;;;;;;;25.61;50.08;97409.63;606560;232;68602;-71
2023/01/08 01:27:27;;;;;;;;;;;;;;;25.60;50.11;97409.93;606636;234;68592;-72
2023/01/08 01:29:55;;;;;;;;;;;;;;;25.59;49.59;97411.00;606686;232;65085;-71
2023/01/08 01:32:22;;;;;;;;;;;;;;;25.58;49.11;97406.72;606686;234;66514;-72
2023/01/08 01:34:50;;;;;;;;;;;;;;;25.57;50.05;97415.90;606550;234;66474;-72
2023/01/08 01:37:17;;;;;;;;;;;;;;;25.56;48.85;97408.90;606779;232;62741;-71
2023/01/08 01:39:48;;;;;;;;;;;;;;;25.55;48.80;97410.00;606708;232;66020;-72
2023/01/08 01:45:04;;;;;;;;;;;;;;;25.53;49.69;97406.80;607359;232;62798;-73
2023/01/08 01:47:33;;;;;;;;;;;;;;;25.52;49.79;97405.20;606699;234;68904;-73
2023/01/08 01:50:05;;;;;;;;;;;;;;;25.51;47.59;97403.58;606470;234;68557;-72
2023/01/08 01:52:34;;;;;;;;;;;;;;;25.49;49.13;97400.41;606836;232;62794;-72
2023/01/08 01:55:03;;;;;;;;;;;;;;;25.50;49.06;97396.61;606700;232;66511;-72
2023/01/08 01:57:32;;;;;;;;;;;;;;;25.47;50.36;97393.41;606655;234;68553;-73
2023/01/08 02:00:03;;;;;;;;;;;;;;;25.47;49.59;97403.38;606664;234;63683;-75
2023/01/08 02:02:32;;;;;;;;;;;;;;;25.45;48.51;97403.69;606535;233;45883;-75
2023/01/08 02:05:00;;;;;;;;;;;;;;;25.44;50.28;97403.95;606691;234;66685;-73
2023/01/08 02:07:35;;;;;;;;;;;;;;;25.42;50.21;97404.23;606735;233;62710;-72
2023/01/08 02:10:04;;;;;;;;;;;;;;;25.41;48.74;97402.65;606779;232;68725;-74
2023/01/08 02:12:43;;;;;;;;;;;;;;;25.41;51.33;97402.65;606581;232;68586;-74
2023/01/08 02:15:18;;;;;;;;;;;;;;;25.41;50.19;97401.86;602196;232;64914;-73
2023/01/08 02:17:53;;;;;;;;;;;;;;;25.39;49.61;97393.27;606630;234;68737;-73
2023/01/08 02:20:25;;;;;;;;;;;;;;;25.38;49.97;97392.47;606484;234;66456;-73
2023/01/08 02:23:10;;;;;;;;;;;;;;;25.37;50.33;97396.27;606800;232;64884;-71
2023/01/08 02:25:56;;;;;;;;;;;;;;;25.36;50.67;97386.57;606675;232;68729;-70
2023/01/08 02:28:25;;;;;;;;;;;;;;;25.35;50.12;97390.36;607921;232;66208;-71
2023/01/08 02:30:54;;;;;;;;;;;;;;;25.34;50.46;97390.64;610766;232;65310;-71
2023/01/08 02:33:22;;;;;;;;;;;;;;;25.33;49.76;97394.44;610746;232;68656;-71
2023/01/08 02:35:54;;;;;;;;;;;;;;;25.31;51.18;97394.71;610835;232;69016;-71
2023/01/08 02:38:23;;;;;;;;;;;;;;;25.30;49.12;97382.36;609766;232;64966;-71
2023/01/08 02:40:52;;;;;;;;;;;;;;;25.30;52.29;97393.13;610702;231;68802;-71
2023/01/08 02:43:21;;;;;;;;;;;;;;;25.28;49.94;97389.91;609016;231;68561;-71
2023/01/08 02:45:56;;;;;;;;;;;;;;;25.28;50.27;97387.22;609969;232;64792;-71
2023/01/08 02:48:35;;;;;;;;;;;;;;;25.28;51.46;97383.73;610871;231;68631;-71
2023/01/08 02:51:06;;;;;;;;;;;;;;;25.26;48.66;97384.02;610939;232;68590;-71
2023/01/08 02:53:36;;;;;;;;;;;;;;;25.26;49.62;97386.70;611011;232;63678;-71
2023/01/08 02:56:05;;;;;;;;;;;;;;;25.24;48.66;97378.15;610802;232;65852;-70
2023/01/08 02:58:33;;;;;;;;;;;;;;;25.24;50.85;97383.53;610678;231;66485;-70
2023/01/08 03:01:06;;;;;;;;;;;;;;;25.23;50.79;97381.91;610880;232;66083;-70
2023/01/08 03:03:34;;;;;;;;;;;;;;;25.21;51.44;97382.21;610858;232;69098;-72
2023/01/08 03:06:03;;;;;;;;;;;;;;;25.20;51.43;97385.97;610941;232;66657;-71
2023/01/08 03:08:32;;;;;;;;;;;;;;;25.18;50.09;97387.34;610874;232;62806;-71
2023/01/08 03:11:04;;;;;;;;;;;;;;;25.18;49.68;97379.28;610817;232;67331;-72
2023/01/08 03:13:36;;;;;;;;;;;;;;;25.18;50.23;97384.66;610829;232;68536;-71
2023/01/08 03:16:05;;;;;;;;;;;;;;;25.17;52.03;97383.07;609814;232;64878;-72
2023/01/08 03:18:34;;;;;;;;;;;;;;;25.16;51.96;97384.17;610807;231;68725;-71
2023/01/08 03:21:03;;;;;;;;;;;;;;;25.15;50.93;97385.24;610911;232;68600;-72
2023/01/08 03:23:32;;;;;;;;;;;;;;;25.14;52.35;97389.00;610833;232;64861;-72
2023/01/08 03:26:00;;;;;;;;;;;;;;;25.12;48.32;97394.66;610237;232;68768;-71
2023/01/08 03:28:29;;;;;;;;;;;;;;;25.13;52.05;97385.52;609487;232;66192;-74
2023/01/08 03:30:57;;;;;;;;;;;;;;;25.11;50.75;97378.83;606852;232;64724;-74
2023/01/08 03:33:26;;;;;;;;;;;;;;;25.10;51.43;97387.96;606328;234;66571;-75
2023/01/08 03:35:55;;;;;;;;;;;;;;;25.09;51.82;97386.37;606516;232;66498;-75
2023/01/08 03:38:27;;;;;;;;;;;;;;;25.08;50.81;97388.27;606681;234;62855;-75
2023/01/08 03:40:56;;;;;;;;;;;;;;;25.08;50.38;97390.95;606737;232;66551;-74
2023/01/08 03:43:24;;;;;;;;;;;;;;;25.07;50.77;97391.23;606612;234;65964;-75
2023/01/08 03:45:53;;;;;;;;;;;;;;;25.07;50.62;97393.92;606670;234;62880;-75
2023/01/08 03:48:21;;;;;;;;;;;;;;;25.06;50.86;97392.33;606617;234;68083;-75
2023/01/08 03:50:49;;;;;;;;;;;;;;;25.05;51.13;97393.44;606784;232;66694;-75
2023/01/08 03:53:16;;;;;;;;;;;;;;;25.03;49.33;97389.13;606687;232;62833;-75
2023/01/08 03:55:44;;;;;;;;;;;;;;;25.02;50.99;97395.60;606710;234;66166;-75
2023/01/08 03:58:11;;;;;;;;;;;;;;;25.01;51.69;97391.30;606731;232;68292;-74
2023/01/08 04:00:39;;;;;;;;;;;;;;;25.00;51.01;97394.28;606724;232;62762;-75
2023/01/08 04:03:06;;;;;;;;;;;;;;;24.99;50.91;97398.05;606619;234;66159;-75
2023/01/08 04:05:34;;;;;;;;;;;;;;;24.98;50.27;97397.25;606665;232;68584;-75
2023/01/08 04:08:01;;;;;;;;;;;;;;;24.98;50.13;97397.25;606724;232;64903;-75
2023/01/08 04:10:29;;;;;;;;;;;;;;;24.97;50.41;97395.66;606770;232;69243;-75
2023/01/08 04:12:56;;;;;;;;;;;;;;;24.97;51.94;97401.03;606641;234;68593;-75
2023/01/08 04:15:23;;;;;;;;;;;;;;;24.95;51.94;97403.20;606650;232;65294;-75
2023/01/08 04:17:51;;;;;;;;;;;;;;;24.94;50.40;97400.82;606801;232;68749;-75
2023/01/08 04:20:19;;;;;;;;;;;;;;;24.93;49.97;97394.62;606921;232;66488;-75
2023/01/08 04:22:46;;;;;;;;;;;;;;;24.92;51.02;97400.30;606740;232;62757;-75
2023/01/08 04:25:14;;;;;;;;;;;;;;;24.90;50.47;97389.82;606727;234;68575;-75
2023/01/08 04:27:41;;;;;;;;;;;;;;;24.90;50.55;97397.88;606615;234;68528;-75
2023/01/08 04:30:09;;;;;;;;;;;;;;;24.89;50.76;97398.98;606822;232;70784;-75
2023/01/08 04:32:37;;;;;;;;;;;;;;;24.88;50.11;97397.39;606870;232;68701;-75
2023/01/08 04:35:04;;;;;;;;;;;;;;;24.87;51.33;97393.09;606757;232;68557;-75
2023/01/08 04:37:32;;;;;;;;;;;;;;;24.86;50.25;97398.77;606782;232;64815;-75
2023/01/08 04:39:59;;;;;;;;;;;;;;;24.87;51.77;97397.67;606879;232;67707;-75
2023/01/08 04:42:26;;;;;;;;;;;;;;;24.85;50.93;97397.14;606713;232;68396;-75
2023/01/08 04:44:54;;;;;;;;;;;;;;;24.84;50.35;97395.56;606790;233;64796;-75
2023/01/08 04:47:21;;;;;;;;;;;;;;;24.83;51.47;97396.63;606876;232;68769;-75
2023/01/08 04:49:49;;;;;;;;;;;;;;;24.81;50.78;97397.72;606715;234;68718;-75
2023/01/08 04:52:16;;;;;;;;;;;;;;;24.80;50.11;97392.65;606974;232;64860;-75
2023/01/08 04:54:44;;;;;;;;;;;;;;;24.80;50.22;97392.65;606707;232;66380;-75
2023/01/08 04:57:11;;;;;;;;;;;;;;;24.79;50.24;97391.83;606891;232;66228;-76
2023/01/08 04:59:39;;;;;;;;;;;;;;;24.77;50.84;97394.02;606938;232;63668;-76
2023/01/08 05:02:06;;;;;;;;;;;;;;;24.78;51.58;97397.50;607086;232;68663;-76
2023/01/08 05:04:34;;;;;;;;;;;;;;;24.77;51.56;97393.20;606851;232;68887;-76
2023/01/08 05:07:01;;;;;;;;;;;;;;;24.76;51.89;97388.92;606630;232;64882;-75
2023/01/08 05:09:29;;;;;;;;;;;;;;;24.75;52.11;97396.19;606654;234;68613;-76
2023/01/08 05:11:56;;;;;;;;;;;;;;;24.74;51.80;97388.40;606716;232;66456;-75
2023/01/08 05:14:24;;;;;;;;;;;;;;;24.73;50.82;97394.87;606754;232;62788;-75
2023/01/08 05:16:51;;;;;;;;;;;;;;;24.72;50.38;97404.03;606690;234;66411;-75
2023/01/08 05:19:18;;;;;;;;;;;;;;;24.71;52.07;97402.41;606695;234;66460;-75
2023/01/08 05:21:46;;;;;;;;;;;;;;;24.70;52.05;97404.30;606855;233;62610;-75
2023/01/08 05:24:13;;;;;;;;;;;;;;;24.70;51.92;97403.51;607051;232;66223;-75
2023/01/08 05:26:41;;;;;;;;;;;;;;;24.69;51.73;97396.52;606707;232;68743;-72
2023/01/08 05:29:09;;;;;;;;;;;;;;;24.68;51.94;97400.30;609141;232;64848;-72
2023/01/08 05:31:36;;;;;;;;;;;;;;;24.67;51.21;97398.70;610797;231;68667;-75
2023/01/08 05:34:04;;;;;;;;;;;;;;;24.66;50.18;97403.26;610689;231;69361;-75
2023/01/08 05:36:31;;;;;;;;;;;;;;;24.66;50.35;97405.15;610764;232;64877;-72
2023/01/08 05:38:59;;;;;;;;;;;;;;;24.64;51.06;97402.77;610963;231;68613;-72
2023/01/08 05:41:26;;;;;;;;;;;;;;;24.65;52.11;97398.19;610887;231;68548;-72
2023/01/08 05:43:54;;;;;;;;;;;;;;;24.63;51.87;97397.66;610947;231;64777;-75
2023/01/08 05:46:21;;;;;;;;;;;;;;;24.62;51.77;97398.76;610959;231;68784;-75
2023/01/08 05:48:49;;;;;;;;;;;;;;;24.59;51.92;97395.55;610673;232;68809;-72
2023/01/08 05:51:16;;;;;;;;;;;;;;;24.61;50.95;97402.52;610725;232;62724;-72
2023/01/08 05:53:44;;;;;;;;;;;;;;;24.59;52.33;97406.30;610859;231;66487;-72
2023/01/08 05:56:12;;;;;;;;;;;;;;;24.57;51.66;97397.71;610896;232;66478;-72
2023/01/08 05:58:39;;;;;;;;;;;;;;;24.57;52.09;97405.77;610809;231;65127;-72
2023/01/08 06:01:09;;;;;;;;;;;;;;;24.56;51.92;97406.08;610949;231;68547;-72
2023/01/08 06:03:36;;;;;;;;;;;;;;;24.54;49.88;97403.66;610783;231;68747;-72
2023/01/08 06:06:05;;;;;;;;;;;;;;;24.54;51.06;97405.55;610891;232;65051;-72
2023/01/08 06:08:32;;;;;;;;;;;;;;;24.54;51.96;97414.41;610825;232;68888;-72
2023/01/08 06:11:00;;;;;;;;;;;;;;;24.51;49.63;97414.98;610954;231;69300;-72
2023/01/08 06:13:28;;;;;;;;;;;;;;;24.51;50.21;97414.98;610904;232;64236;-72
2023/01/08 06:15:58;;;;;;;;;;;;;;;24.51;51.25;97408.81;610879;231;69018;-72
2023/01/08 06:18:26;;;;;;;;;;;;;;;24.48;50.46;97418.23;610723;231;66877;-72
2023/01/08 06:20:54;;;;;;;;;;;;;;;24.49;52.39;97410.97;610875;232;62857;-71
2023/01/08 06:23:21;;;;;;;;;;;;;;;24.47;49.61;97413.95;610941;231;66444;-75
2023/01/08 06:25:53;;;;;;;;;;;;;;;24.46;49.31;97420.40;610906;231;68502;-75
2023/01/08 06:28:21;;;;;;;;;;;;;;;24.47;51.80;97422.02;610654;231;62880;-75
2023/01/08 06:30:48;;;;;;;;;;;;;;;24.46;51.57;97411.55;610931;231;66513;-75
2023/01/08 06:33:16;;;;;;;;;;;;;;;24.46;52.51;97412.34;610672;231;66473;-75
2023/01/08 06:35:44;;;;;;;;;;;;;;;24.44;51.07;97417.19;610967;232;62973;-75
2023/01/08 06:38:11;;;;;;;;;;;;;;;24.42;50.66;97413.97;610786;232;66225;-75
2023/01/08 06:40:39;;;;;;;;;;;;;;;24.42;50.76;97418.52;610881;231;66500;-75
2023/01/08 06:43:06;;;;;;;;;;;;;;;24.41;52.37;97417.73;610873;232;62768;-75
2023/01/08 06:45:34;;;;;;;;;;;;;;;24.40;51.68;97424.20;610975;231;68526;-75
2023/01/08 06:48:02;;;;;;;;;;;;;;;24.39;51.41;97422.61;610953;231;68475;-75
2023/01/08 06:50:30;;;;;;;;;;;;;;;24.38;53.30;97426.36;610886;231;62638;-76
2023/01/08 06:52:58;;;;;;;;;;;;;;;24.37;51.75;97422.88;610905;231;66515;-75
2023/01/08 06:55:26;;;;;;;;;;;;;;;24.37;51.73;97424.77;610884;231;68565;-75
2023/01/08 06:57:57;;;;;;;;;;;;;;;24.35;50.92;97424.23;610894;232;65007;-75
2023/01/08 07:00:26;;;;;;;;;;;;;;;24.34;50.21;97428.81;610973;231;68729;-75
2023/01/08 07:02:54;;;;;;;;;;;;;;;24.34;52.63;97422.64;610934;231;68541;-75
2023/01/08 07:05:21;;;;;;;;;;;;;;;24.32;50.79;97428.29;610904;232;64984;-75
2023/01/08 07:07:49;;;;;;;;;;;;;;;24.33;52.37;97429.08;610913;232;68672;-76
2023/01/08 07:10:16;;;;;;;;;;;;;;;24.31;51.12;97429.38;610707;231;68629;-76
2023/01/08 07:12:46;;;;;;;;;;;;;;;24.30;52.01;97426.97;610926;231;65126;-75
2023/01/08 07:15:13;;;;;;;;;;;;;;;24.31;51.35;97425.91;610977;231;66491;-76
2023/01/08 07:17:41;;;;;;;;;;;;;;;24.31;52.08;97425.91;610881;232;68615;-76
2023/01/08 07:20:09;;;;;;;;;;;;;;;24.30;52.42;97424.28;610851;232;64965;-75
2023/01/08 07:22:36;;;;;;;;;;;;;;;24.30;52.86;97426.97;610808;231;68729;-75
2023/01/08 07:25:04;;;;;;;;;;;;;;;24.29;52.67;97422.69;610882;231;68321;-75
2023/01/08 07:27:31;;;;;;;;;;;;;;;24.29;52.07;97430.75;610885;231;62783;-75
2023/01/08 07:29:59;;;;;;;;;;;;;;;24.27;52.39;97422.16;603698;231;66520;-75
2023/01/08 07:32:26;;;;;;;;;;;;;;;24.26;52.96;97421.37;603127;234;66734;-75
2023/01/08 07:34:57;;;;;;;;;;;;;;;24.26;51.76;97432.11;603236;235;62736;-75
2023/01/08 07:37:23;;;;;;;;;;;;;;;24.27;52.50;97430.22;603177;234;66627;-75
2023/01/08 07:39:51;;;;;;;;;;;;;;;24.26;51.16;97423.26;603175;235;68675;-75
2023/01/08 07:42:19;;;;;;;;;;;;;;;24.25;51.79;97427.01;603229;235;62781;-75
2023/01/08 07:44:47;;;;;;;;;;;;;;;24.25;52.62;97429.69;602997;234;68895;-75
2023/01/08 07:47:14;;;;;;;;;;;;;;;24.24;52.99;97426.21;603087;235;68312;-75
2023/01/08 07:49:42;;;;;;;;;;;;;;;24.25;53.76;97429.69;603245;235;65205;-74
2023/01/08 07:52:09;;;;;;;;;;;;;;;24.23;51.50;97423.83;603185;234;68178;-75
2023/01/08 07:54:37;;;;;;;;;;;;;;;24.23;52.18;97424.63;603074;234;66288;-75
2023/01/08 07:57:06;;;;;;;;;;;;;;;24.21;51.99;97426.78;603267;235;62752;-75
2023/01/08 07:59:33;;;;;;;;;;;;;;;24.23;51.22;97423.83;602936;234;68676;-75
2023/01/08 08:02:01;;;;;;;;;;;;;;;24.23;53.29;97418.45;603190;235;68532;-75
2023/01/08 08:04:30;;;;;;;;;;;;;;;24.21;50.56;97420.61;603318;234;44872;-75
2023/01/08 08:06:58;;;;;;;;;;;;;;;24.20;50.14;97425.19;603232;235;66136;-75
2023/01/08 08:09:25;;;;;;;;;;;;;;;24.21;50.44;97412.55;603244;234;66286;-75
2023/01/08 08:11:53;;;;;;;;;;;;;;;24.20;50.83;97413.62;603091;234;64953;-75
2023/01/08 08:14:22;;;;;;;;;;;;;;;24.21;51.42;97412.55;602915;234;68641;-75
2023/01/08 08:16:49;;;;;;;;;;;;;;;24.20;50.60;97408.25;602844;234;68536;-75
2023/01/08 08:19:17;;;;;;;;;;;;;;;24.19;51.39;97402.08;603168;235;65209;-75
2023/01/08 08:21:44;;;;;;;;;;;;;;;24.21;51.16;97404.50;603163;234;68666;-75
2023/01/08 08:24:12;;;;;;;;;;;;;;;24.21;51.37;97404.50;603192;234;68354;-75
2023/01/08 08:26:39;;;;;;;;;;;;;;;24.21;49.81;97409.87;603178;234;64900;-75
2023/01/08 08:29:07;;;;;;;;;;;;;;;24.20;51.62;97409.08;605247;231;68678;-75
2023/01/08 08:31:34;;;;;;;;;;;;;;;24.20;49.95;97409.08;606565;234;68597;-75
2023/01/08 08:34:02;;;;;;;;;;;;;;;24.20;51.24;97403.70;606829;232;64917;-75
2023/01/08 08:36:30;;;;;;;;;;;;;;;24.20;50.49;97409.08;606742;232;68595;-75
2023/01/08 08:38:57;;;;;;;;;;;;;;;24.20;50.86;97398.34;606670;232;68457;-75
2023/01/08 08:41:25;;;;;;;;;;;;;;;24.21;49.61;97404.50;606201;232;64903;-75
2023/01/08 08:43:52;;;;;;;;;;;;;;;24.20;50.85;97397.51;606797;232;68596;-75
2023/01/08 08:46:20;;;;;;;;;;;;;;;24.20;49.83;97397.51;606633;232;68919;-75
2023/01/08 08:48:47;;;;;;;;;;;;;;;24.20;49.81;97395.65;606688;234;62786;-75
2023/01/08 08:51:15;;;;;;;;;;;;;;;24.21;50.99;97385.70;606631;232;68800;-75
2023/01/08 08:53:42;;;;;;;;;;;;;;;24.21;49.18;97393.76;606712;234;68483;-75
2023/01/08 08:56:10;;;;;;;;;;;;;;;24.21;50.22;97393.76;606788;232;64654;-75
2023/01/08 08:58:40;;;;;;;;;;;;;;;24.21;48.68;97393.76;605839;232;68406;-75
2023/01/08 09:01:07;;;;;;;;;;;;;;;24.20;50.16;97384.91;606256;234;69756;-75
2023/01/08 09:03:34;;;;;;;;;;;;;;;24.20;49.74;97381.39;606458;234;64857;-75
2023/01/08 09:06:02;;;;;;;;;;;;;;;24.22;50.28;97379.23;606412;234;69743;-75
2023/01/08 09:08:29;;;;;;;;;;;;;;;24.21;50.73;97377.64;606435;232;66465;-75
2023/01/08 09:10:57;;;;;;;;;;;;;;;24.22;49.65;97373.86;606380;232;63652;-75
2023/01/08 09:13:24;;;;;;;;;;;;;;;24.24;49.41;97371.70;606577;232;68988;-75
2023/01/08 09:15:52;;;;;;;;;;;;;;;24.24;49.15;97375.19;606686;234;68506;-75
2023/01/08 09:18:19;;;;;;;;;;;;;;;24.26;49.95;97369.55;606640;234;64966;-75
2023/01/08 09:20:49;;;;;;;;;;;;;;;24.26;49.68;97369.55;606746;234;66407;-75
2023/01/08 09:23:16;;;;;;;;;;;;;;;24.26;49.14;97366.86;606742;232;68571;-75
2023/01/08 09:25:44;;;;;;;;;;;;;;;24.26;49.21;97364.17;606645;234;62807;-75
2023/01/08 09:28:12;;;;;;;;;;;;;;;24.27;49.77;97358.50;606626;231;66522;-75
2023/01/08 09:30:39;;;;;;;;;;;;;;;24.28;50.52;97356.61;606723;232;68579;-74
2023/01/08 09:33:07;;;;;;;;;;;;;;;24.29;49.44;97355.55;606688;234;65073;-74
2023/01/08 09:35:34;;;;;;;;;;;;;;;24.29;49.39;97342.91;606869;232;68736;-74
2023/01/08 09:38:02;;;;;;;;;;;;;;;24.30;49.19;97339.13;606726;232;69025;-75
2023/01/08 09:40:34;;;;;;;;;;;;;;;24.31;49.27;97334.58;606659;234;64888;-75
2023/01/08 09:43:03;;;;;;;;;;;;;;;24.31;49.49;97335.38;606534;234;68737;-74
2023/01/08 09:45:31;;;;;;;;;;;;;;;24.32;49.23;97326.22;606806;232;66261;-75
2023/01/08 09:48:00;;;;;;;;;;;;;;;24.33;49.74;97316.27;606685;234;63002;-75
2023/01/08 09:50:29;;;;;;;;;;;;;;;24.34;49.29;97318.69;606870;232;66325;-75
2023/01/08 09:52:57;;;;;;;;;;;;;;;24.35;50.08;97314.91;606688;234;68508;-75
2023/01/08 09:55:25;;;;;;;;;;;;;;;24.37;49.21;97306.58;606761;232;65085;-75
2023/01/08 09:57:53;;;;;;;;;;;;;;;24.38;49.68;97308.16;606795;232;68666;-75
2023/01/08 10:00:30;;;;;;;;;;;;;;;24.41;50.52;97301.42;606855;232;68974;-74
2023/01/08 10:02:58;;;;;;;;;;;;;;;24.41;50.70;97299.53;606735;232;62836;-75
2023/01/08 10:05:27;;;;;;;;;;;;;;;24.42;50.77;97297.64;606656;234;66413;-75
2023/01/08 10:07:55;;;;;;;;;;;;;;;24.43;50.14;97289.30;606653;234;68656;-75
2023/01/08 10:10:24;;;;;;;;;;;;;;;24.45;50.29;97291.75;606776;232;64944;-74
2023/01/08 10:12:53;;;;;;;;;;;;;;;24.46;50.16;97283.38;606716;232;68629;-75
2023/01/08 10:15:21;;;;;;;;;;;;;;;24.48;50.09;97283.91;606767;232;68661;-75
2023/01/08 10:17:53;;;;;;;;;;;;;;;24.49;50.78;97280.13;606976;232;62722;-75
2023/01/08 10:20:22;;;;;;;;;;;;;;;24.51;49.14;97277.95;606681;234;68324;-75
2023/01/08 10:22:53;;;;;;;;;;;;;;;24.53;50.26;97275.79;606699;234;68551;-75
2023/01/08 10:25:21;;;;;;;;;;;;;;;24.56;50.31;97275.20;606575;234;64815;-75
2023/01/08 10:27:50;;;;;;;;;;;;;;;24.57;50.51;97270.63;606649;232;66650;-74
2023/01/08 10:30:25;;;;;;;;;;;;;;;24.58;51.36;97270.36;606392;232;66465;-75
2023/01/08 10:32:54;;;;;;;;;;;;;;;24.59;50.63;97266.57;606394;233;65042;-75
2023/01/08 10:35:23;;;;;;;;;;;;;;;24.63;50.93;97260.61;606592;234;69568;-74
2023/01/08 10:37:50;;;;;;;;;;;;;;;24.64;48.03;97259.55;606434;232;68531;-75
2023/01/08 10:40:35;;;;;;;;;;;;;;;24.66;48.47;97257.34;606698;234;64886;-75
2023/01/08 10:43:07;;;;;;;;;;;;;;;24.68;50.00;97253.28;606751;232;66382;-75
2023/01/08 10:45:35;;;;;;;;;;;;;;;24.70;50.91;97244.95;606743;232;68572;-75
2023/01/08 10:48:04;;;;;;;;;;;;;;;24.70;49.15;97244.95;606708;232;64945;-75
2023/01/08 10:50:33;;;;;;;;;;;;;;;24.72;49.68;97248.16;605672;232;68697;-74
2023/01/08 10:53:04;;;;;;;;;;;;;;;24.73;50.14;97245.16;606849;232;68877;-74
2023/01/08 10:55:37;;;;;;;;;;;;;;;24.74;49.07;97241.37;605925;234;65036;-74
2023/01/08 10:58:07;;;;;;;;;;;;;;;24.76;48.99;97243.78;606721;234;68654;-74
2023/01/08 11:00:35;;;;;;;;;;;;;;;24.77;49.68;97229.24;606070;233;68554;-74
2023/01/08 11:03:04;;;;;;;;;;;;;;;24.78;50.27;97236.23;606774;232;62952;-74
2023/01/08 11:05:33;;;;;;;;;;;;;;;24.80;48.72;97234.86;606647;232;68696;-74
2023/01/08 11:08:02;;;;;;;;;;;;;;;24.80;50.22;97234.86;606537;234;68327;-75
2023/01/08 11:10:30;;;;;;;;;;;;;;;24.82;47.99;97223.80;606847;232;65075;-76
2023/01/08 11:12:59;;;;;;;;;;;;;;;24.84;49.05;97218.94;606717;232;68713;-75
2023/01/08 11:15:28;;;;;;;;;;;;;;;24.86;47.75;97222.14;606705;232;69181;-72
2023/01/08 11:17:57;;;;;;;;;;;;;;;24.88;48.64;97211.91;606691;232;64639;-72
2023/01/08 11:20:29;;;;;;;;;;;;;;;24.90;49.07;97214.28;606268;232;68694;-72
2023/01/08 11:23:06;;;;;;;;;;;;;;;24.92;49.10;97225.55;606670;234;66582;-70
2023/01/08 11:25:35;;;;;;;;;;;;;;;24.94;46.54;97221.48;606944;232;62846;-70
2023/01/08 11:28:03;;;;;;;;;;;;;;;24.95;48.33;97212.32;607386;232;68689;-70
2023/01/08 11:30:32;;;;;;;;;;;;;;;24.97;47.76;97220.11;610486;231;68675;-70
2023/01/08 11:33:07;;;;;;;;;;;;;;;24.98;48.04;97222.48;610937;232;62853;-70
2023/01/08 11:35:46;;;;;;;;;;;;;;;25.00;49.12;97223.00;610911;232;66192;-70
2023/01/08 11:38:13;;;;;;;;;;;;;;;25.02;48.59;97220.83;610672;232;69497;-71
2023/01/08 11:40:51;;;;;;;;;;;;;;;25.04;48.53;97215.14;610954;232;62801;-72
2023/01/08 11:43:30;;;;;;;;;;;;;;;25.06;47.75;97218.34;610906;231;66765;-71
2023/01/08 11:46:05;;;;;;;;;;;;;;;25.09;47.36;97216.96;610854;232;66412;-71
2023/01/08 11:48:40;;;;;;;;;;;;;;;25.11;45.73;97214.78;610869;232;62757;-75
2023/01/08 11:51:09;;;;;;;;;;;;;;;25.12;48.73;97213.68;610645;231;68674;-75
2023/01/08 11:53:41;;;;;;;;;;;;;;;25.13;47.80;97209.92;610918;231;66453;-75
2023/01/08 11:56:26;;;;;;;;;;;;;;;25.14;48.89;97206.92;610971;232;65030;-75
2023/01/08 11:58:58;;;;;;;;;;;;;;;25.16;48.15;97207.47;610566;231;68496;-75
2023/01/08 12:01:27;;;;;;;;;;;;;;;25.17;48.56;97202.88;610895;231;68289;-75
2023/01/08 12:04:05;;;;;;;;;;;;;;;25.18;48.43;97199.91;610741;231;62620;-74
2023/01/08 12:06:37;;;;;;;;;;;;;;;25.19;46.54;97195.33;610780;231;68378;-75
2023/01/08 12:09:15;;;;;;;;;;;;;;;25.21;48.69;97199.31;610726;232;66189;-74
2023/01/08 12:11:44;;;;;;;;;;;;;;;25.22;46.56;97200.11;605405;231;65025;-74
2023/01/08 12:14:30;;;;;;;;;;;;;;;25.24;47.89;97200.62;610966;231;68326;-75
2023/01/08 12:17:15;;;;;;;;;;;;;;;25.25;48.15;97202.21;610939;232;68328;-75
2023/01/08 12:19:45;;;;;;;;;;;;;;;25.27;47.75;97191.17;610889;232;65182;-75
2023/01/08 12:22:27;;;;;;;;;;;;;;;25.28;46.78;97198.14;610856;232;67148;-75
2023/01/08 12:25:05;;;;;;;;;;;;;;;25.29;48.09;97194.34;610762;232;68327;-75
2023/01/08 12:27:38;;;;;;;;;;;;;;;25.31;46.21;97200.23;610415;231;62876;-76
2023/01/08 12:30:23;;;;;;;;;;;;;;;25.32;49.34;97197.27;602672;234;68818;-75
2023/01/08 12:33:10;;;;;;;;;;;;;;;25.32;46.60;97197.27;603312;234;66877;-75
2023/01/08 12:35:42;;;;;;;;;;;;;;;25.33;46.29;97198.84;603570;235;65233;-75
2023/01/08 12:38:14;;;;;;;;;;;;;;;25.33;48.62;97193.47;603208;234;66555;-75
2023/01/08 12:40:48;;;;;;;;;;;;;;;25.35;46.75;97185.91;603134;234;54356;-75
2023/01/08 12:43:17;;;;;;;;;;;;;;;25.36;47.50;97192.08;603523;234;64100;-75
2023/01/08 12:45:45;;;;;;;;;;;;;;;25.37;46.20;97193.66;603411;232;66507;-75
2023/01/08 12:48:24;;;;;;;;;;;;;;;25.39;46.47;97194.17;603553;234;66680;-74
2023/01/08 12:50:59;;;;;;;;;;;;;;;25.40;46.40;97198.45;603369;235;64934;-75
2023/01/08 12:53:29;;;;;;;;;;;;;;;25.40;49.40;97196.59;603409;234;66224;-75
2023/01/08 12:56:07;;;;;;;;;;;;;;;25.40;46.98;97193.89;603454;234;68522;-75
2023/01/08 12:58:40;;;;;;;;;;;;;;;25.42;48.11;97191.69;603292;234;62756;-75
2023/01/08 13:01:09;;;;;;;;;;;;;;;25.43;47.41;97197.89;603252;234;68753;-75